createdAt,value
2018-12-29T00:00:59.381Z,31.13
2018-12-29T00:03:27.562Z,29.73
2018-12-29T00:05:55.701Z,30.00
2018-12-29T00:08:23.848Z,31.40
2018-12-29T00:10:52.033Z,29.00
2018-12-29T00:13:20.189Z,28.10
2018-12-29T00:15:48.359Z,29.63
2018-12-29T00:18:16.553Z,29.53
2018-12-29T00:20:44.705Z,27.23
2018-12-29T00:23:12.921Z,28.13
2018-12-29T00:25:41.094Z,27.63
2018-12-29T00:28:09.241Z,27.23
2018-12-29T00:30:37.386Z,27.20
2018-12-29T00:33:05.561Z,25.60
2018-12-29T00:35:34.597Z,26.30
2018-12-29T00:38:02.775Z,26.13
2018-12-29T00:40:30.953Z,25.40
2018-12-29T00:42:59.097Z,25.80
2018-12-29T00:45:27.242Z,25.57
2018-12-29T00:47:55.418Z,26.63
2018-12-29T00:50:23.567Z,25.23
2018-12-29T00:52:51.711Z,24.97
2018-12-29T00:55:19.889Z,23.87
2018-12-29T00:57:48.042Z,24.57
2018-12-29T01:00:16.189Z,28.38
2018-12-29T01:02:44.367Z,23.40
2018-12-29T01:05:13.525Z,22.93
2018-12-29T01:07:41.625Z,22.33
2018-12-29T01:10:09.798Z,21.50
2018-12-29T01:12:37.945Z,22.27
2018-12-29T01:15:09.939Z,21.23
2018-12-29T01:17:35.909Z,23.23
2018-12-29T01:20:04.629Z,23.90
2018-12-29T01:22:32.797Z,20.97
2018-12-29T01:25:02.138Z,22.27
2018-12-29T01:27:30.289Z,22.73
2018-12-29T01:29:58.440Z,21.17
2018-12-29T01:32:26.611Z,21.07
2018-12-29T01:34:54.763Z,20.73
2018-12-29T01:37:22.984Z,21.00
2018-12-29T01:39:51.160Z,21.23
2018-12-29T01:42:19.306Z,19.73
2018-12-29T01:44:47.443Z,19.40
2018-12-29T01:47:15.878Z,20.17
2018-12-29T01:49:44.021Z,20.07
2018-12-29T01:52:12.306Z,17.87
2018-12-29T01:54:40.592Z,19.30
2018-12-29T01:57:09.403Z,19.23
2018-12-29T01:59:37.553Z,18.77
2018-12-29T02:02:05.775Z,18.20
2018-12-29T02:04:33.926Z,17.93
2018-12-29T02:07:02.081Z,22.93
2018-12-29T02:09:30.262Z,19.20
2018-12-29T02:11:58.401Z,17.60
2018-12-29T02:14:26.545Z,18.33
2018-12-29T02:16:54.730Z,17.87
2018-12-29T02:19:22.929Z,17.53
2018-12-29T02:21:51.098Z,17.93
2018-12-29T02:24:19.265Z,16.97
2018-12-29T02:26:47.410Z,16.97
2018-12-29T02:29:15.571Z,17.40
2018-12-29T02:31:43.730Z,17.20
2018-12-29T02:34:11.880Z,17.17
2018-12-29T02:36:40.030Z,17.23
2018-12-29T02:39:09.599Z,18.47
2018-12-29T02:41:37.744Z,17.10
2018-12-29T02:44:05.885Z,18.07
2018-12-29T02:46:34.062Z,18.57
2018-12-29T02:49:02.205Z,17.43
2018-12-29T02:51:30.351Z,16.40
2018-12-29T02:53:58.549Z,17.40
2018-12-29T02:56:26.701Z,18.13
2018-12-29T02:58:54.835Z,17.63
2018-12-29T03:01:23.113Z,16.83
2018-12-29T03:03:51.265Z,16.20
2018-12-29T03:06:19.406Z,16.13
2018-12-29T03:08:48.772Z,18.03
2018-12-29T03:11:16.927Z,18.07
2018-12-29T03:13:45.073Z,17.30
2018-12-29T03:16:13.545Z,17.00
2018-12-29T03:18:42.662Z,16.87
2018-12-29T03:21:10.761Z,16.73
2018-12-29T03:23:38.925Z,15.20
2018-12-29T03:26:07.079Z,16.37
2018-12-29T03:28:35.223Z,15.80
2018-12-29T03:31:03.756Z,15.83
2018-12-29T03:33:31.905Z,16.87
2018-12-29T03:36:00.049Z,15.37
2018-12-29T03:38:28.245Z,15.67
2018-12-29T03:40:56.381Z,16.40
2018-12-29T03:43:24.533Z,16.20
2018-12-29T03:45:52.723Z,16.07
2018-12-29T03:48:20.876Z,15.90
2018-12-29T03:50:49.018Z,17.67
2018-12-29T03:53:17.229Z,17.00
2018-12-29T03:55:45.369Z,17.87
2018-12-29T03:58:13.523Z,17.27
2018-12-29T04:00:41.970Z,17.13
2018-12-29T04:03:11.298Z,16.40
2018-12-29T04:05:39.449Z,17.17
2018-12-29T04:08:07.626Z,17.53
2018-12-29T04:10:35.785Z,17.80
2018-12-29T04:13:03.927Z,17.23
2018-12-29T04:15:32.398Z,18.47
2018-12-29T04:18:00.551Z,16.63
2018-12-29T04:20:28.696Z,16.57
2018-12-29T04:22:56.947Z,17.17
2018-12-29T04:25:25.026Z,17.27
2018-12-29T04:27:53.173Z,16.53
2018-12-29T04:30:21.351Z,19.27
2018-12-29T04:32:49.496Z,19.43
2018-12-29T04:35:17.655Z,17.83
2018-12-29T04:37:46.154Z,18.27
2018-12-29T04:40:14.305Z,17.83
2018-12-29T04:42:44.811Z,18.87
2018-12-29T04:45:13.709Z,17.87
2018-12-29T04:47:41.854Z,18.00
2018-12-29T04:50:09.993Z,18.07
2018-12-29T04:52:38.583Z,18.37
2018-12-29T04:55:06.727Z,18.73
2018-12-29T04:57:34.874Z,18.87
2018-12-29T05:00:03.117Z,19.97
2018-12-29T05:02:31.269Z,19.07
2018-12-29T05:04:59.421Z,20.10
2018-12-29T05:07:27.595Z,18.60
2018-12-29T05:09:55.748Z,19.57
2018-12-29T05:12:23.896Z,21.20
2018-12-29T05:14:52.066Z,19.40
2018-12-29T05:17:20.210Z,20.27
2018-12-29T05:19:48.350Z,20.93
2018-12-29T05:22:17.453Z,20.40
2018-12-29T05:24:45.601Z,21.33
2018-12-29T05:27:13.770Z,21.80
2018-12-29T05:29:41.929Z,22.27
2018-12-29T05:32:10.073Z,20.40
2018-12-29T05:34:38.349Z,22.57
2018-12-29T05:37:06.538Z,22.70
2018-12-29T05:39:34.681Z,22.93
2018-12-29T05:42:05.130Z,22.63
2018-12-29T05:44:33.298Z,24.83
2018-12-29T05:47:01.458Z,23.77
2018-12-29T05:49:32.618Z,23.23
2018-12-29T05:52:00.792Z,25.37
2018-12-29T05:54:28.934Z,23.90
2018-12-29T05:56:57.089Z,25.23
2018-12-29T05:59:25.275Z,28.25
2018-12-29T06:01:53.421Z,26.60
2018-12-29T06:04:21.568Z,26.13
2018-12-29T06:06:49.750Z,25.63
2018-12-29T06:09:19.250Z,26.27
2018-12-29T06:11:47.398Z,25.67
2018-12-29T06:14:15.572Z,25.37
2018-12-29T06:16:44.586Z,25.63
2018-12-29T06:19:12.725Z,26.07
2018-12-29T06:21:40.902Z,27.13
2018-12-29T06:24:09.040Z,26.57
2018-12-29T06:26:37.186Z,26.10
2018-12-29T06:29:05.350Z,27.00
2018-12-29T06:31:33.493Z,26.43
2018-12-29T06:34:01.649Z,27.93
2018-12-29T06:36:29.829Z,26.90
2018-12-29T06:38:57.973Z,26.70
2018-12-29T06:41:26.123Z,25.63
2018-12-29T06:43:55.649Z,27.30
2018-12-29T06:46:23.799Z,27.57
2018-12-29T06:48:51.946Z,28.87
2018-12-29T06:51:20.133Z,26.83
2018-12-29T06:53:48.290Z,26.40
2018-12-29T06:56:16.449Z,25.67
2018-12-29T06:58:46.221Z,24.77
2018-12-29T07:01:14.372Z,25.40
2018-12-29T07:03:42.514Z,24.10
2018-12-29T07:06:10.698Z,25.37
2018-12-29T07:08:38.849Z,26.13
2018-12-29T07:11:06.991Z,26.37
2018-12-29T07:13:35.195Z,27.27
2018-12-29T07:16:04.266Z,26.83
2018-12-29T07:18:32.401Z,26.30
2018-12-29T07:21:00.594Z,27.00
2018-12-29T07:23:28.737Z,26.60
2018-12-29T07:25:56.897Z,26.80
2018-12-29T07:28:25.066Z,27.73
2018-12-29T07:30:53.209Z,26.90
2018-12-29T07:33:21.370Z,26.27
2018-12-29T07:35:49.565Z,26.03
2018-12-29T07:38:17.714Z,26.67
2018-12-29T07:40:45.866Z,27.40
2018-12-29T07:43:14.041Z,27.00
2018-12-29T07:45:42.185Z,27.27
2018-12-29T07:48:10.339Z,26.43
2018-12-29T07:50:38.509Z,27.80
2018-12-29T07:53:06.675Z,27.30
2018-12-29T07:55:34.821Z,27.63
2018-12-29T07:58:06.334Z,29.97
2018-12-29T08:00:37.175Z,27.23
2018-12-29T08:03:08.319Z,27.13
2018-12-29T08:05:40.385Z,29.37
2018-12-29T08:08:11.528Z,28.87
2018-12-29T08:10:43.590Z,29.07
2018-12-29T08:13:16.267Z,29.60
2018-12-29T08:15:49.075Z,28.47
2018-12-29T08:18:20.097Z,29.73
2018-12-29T08:20:52.776Z,27.83
2018-12-29T08:23:25.149Z,29.03
2018-12-29T08:25:55.678Z,28.07
2018-12-29T08:28:26.824Z,27.90
2018-12-29T08:30:58.889Z,29.17
2018-12-29T08:33:31.260Z,28.63
2018-12-29T08:36:03.329Z,28.13
2018-12-29T08:38:35.082Z,27.97
2018-12-29T08:41:07.579Z,28.00
2018-12-29T08:43:38.908Z,28.10
2018-12-29T08:46:09.438Z,29.00
2018-12-29T08:48:41.195Z,29.07
2018-12-29T08:51:13.262Z,30.17
2018-12-29T08:53:44.713Z,29.33
2018-12-29T08:56:16.469Z,27.50
2018-12-29T08:58:44.813Z,28.43
2018-12-29T09:01:12.961Z,26.30
2018-12-29T09:03:41.133Z,27.00
2018-12-29T09:06:09.284Z,29.17
2018-12-29T09:08:37.425Z,28.47
2018-12-29T09:11:05.594Z,28.07
2018-12-29T09:13:36.161Z,28.17
2018-12-29T09:16:04.665Z,28.00
2018-12-29T09:18:32.840Z,27.37
2018-12-29T09:21:00.994Z,28.63
2018-12-29T09:23:29.153Z,28.97
2018-12-29T09:25:59.957Z,27.00
2018-12-29T09:28:28.109Z,27.43
2018-12-29T09:30:56.251Z,29.67
2018-12-29T09:33:24.420Z,26.50
2018-12-29T09:35:52.576Z,26.07
2018-12-29T09:38:21.214Z,27.10
2018-12-29T09:40:49.381Z,25.77
2018-12-29T09:43:17.529Z,26.47
2018-12-29T09:45:45.721Z,27.43
2018-12-29T09:48:13.850Z,26.83
2018-12-29T09:50:42.910Z,27.87
2018-12-29T09:53:11.059Z,27.47
2018-12-29T09:55:39.367Z,29.37
2018-12-29T09:58:07.518Z,26.90
2018-12-29T10:00:35.662Z,28.50
2018-12-29T10:03:03.851Z,27.30
2018-12-29T10:05:32.003Z,26.97
2018-12-29T10:08:00.145Z,27.17
2018-12-29T10:10:28.818Z,28.20
2018-12-29T10:12:58.826Z,24.70
2018-12-29T10:15:27.001Z,25.13
2018-12-29T10:17:56.734Z,25.93
2018-12-29T10:20:24.895Z,24.97
2018-12-29T10:22:53.037Z,24.23
2018-12-29T10:25:21.224Z,24.60
2018-12-29T10:27:49.366Z,25.87
2018-12-29T10:30:17.523Z,24.67
2018-12-29T10:32:45.721Z,25.00
2018-12-29T10:35:14.597Z,23.77
2018-12-29T10:37:42.749Z,24.43
2018-12-29T10:40:10.924Z,24.47
2018-12-29T10:42:39.078Z,25.33
2018-12-29T10:45:09.095Z,24.83
2018-12-29T10:47:37.266Z,24.73
2018-12-29T10:50:06.101Z,24.80
2018-12-29T10:52:34.253Z,23.77
2018-12-29T10:55:02.505Z,25.30
2018-12-29T10:57:30.652Z,24.40
2018-12-29T10:59:58.799Z,24.43
2018-12-29T11:02:26.975Z,24.37
2018-12-29T11:04:55.129Z,23.97
2018-12-29T11:07:23.274Z,25.60
2018-12-29T11:09:51.761Z,25.10
2018-12-29T11:12:19.913Z,24.60
2018-12-29T11:14:48.062Z,24.63
2018-12-29T11:17:16.310Z,25.57
2018-12-29T11:19:44.454Z,24.77
2018-12-29T11:22:12.598Z,24.03
2018-12-29T11:24:40.770Z,24.60
2018-12-29T11:27:10.405Z,25.23
2018-12-29T11:29:38.566Z,26.10
2018-12-29T11:32:07.785Z,25.73
2018-12-29T11:34:35.936Z,25.70
2018-12-29T11:37:04.098Z,23.23
2018-12-29T11:39:32.246Z,24.43
2018-12-29T11:42:00.401Z,24.13
2018-12-29T11:44:28.546Z,22.47
2018-12-29T11:46:56.717Z,23.57
2018-12-29T11:49:24.861Z,24.43
2018-12-29T11:51:53.005Z,24.47
2018-12-29T11:54:21.180Z,26.33
2018-12-29T11:56:49.329Z,28.17
2018-12-29T11:59:17.494Z,28.47
2018-12-29T12:01:45.672Z,29.07
2018-12-29T12:04:13.822Z,26.40
2018-12-29T12:06:41.985Z,28.07
2018-12-29T12:09:10.549Z,28.17
2018-12-29T12:11:38.709Z,28.17
2018-12-29T12:14:07.714Z,27.50
2018-12-29T12:16:35.889Z,28.13
2018-12-29T12:19:04.037Z,28.00
2018-12-29T12:21:32.182Z,25.50
2018-12-29T12:24:00.357Z,25.93
2018-12-29T12:26:28.509Z,28.73
2018-12-29T12:28:56.682Z,27.20
2018-12-29T12:31:25.472Z,25.50
2018-12-29T12:33:53.626Z,24.07
2018-12-29T12:36:21.771Z,24.27
2018-12-29T12:38:50.314Z,21.60
2018-12-29T12:41:18.966Z,22.70
2018-12-29T12:43:47.122Z,20.63
2018-12-29T12:46:15.847Z,19.50
2018-12-29T12:48:44.371Z,19.40
2018-12-29T12:51:12.502Z,19.03
2018-12-29T12:53:40.679Z,18.43
2018-12-29T12:56:08.963Z,17.20
2018-12-29T12:58:37.196Z,16.93
2018-12-29T13:01:05.995Z,15.47
2018-12-29T13:03:34.145Z,15.57
2018-12-29T13:06:02.290Z,15.27
2018-12-29T13:08:30.463Z,14.33
2018-12-29T13:10:58.607Z,15.13
2018-12-29T13:13:26.775Z,14.27
2018-12-29T13:15:55.145Z,15.57
2018-12-29T13:18:23.302Z,14.70
2018-12-29T13:20:51.456Z,13.43
2018-12-29T13:23:19.641Z,12.90
2018-12-29T13:25:47.793Z,12.47
2018-12-29T13:28:15.937Z,12.57
2018-12-29T13:30:44.110Z,10.03
2018-12-29T13:33:12.258Z,9.93
2018-12-29T13:35:40.401Z,9.50
2018-12-29T13:38:08.649Z,9.27
2018-12-29T13:40:38.446Z,8.10
2018-12-29T13:43:08.519Z,8.33
2018-12-29T13:45:36.413Z,6.97
2018-12-29T13:48:04.558Z,6.87
2018-12-29T13:50:32.701Z,6.73
2018-12-29T13:53:00.877Z,6.63
2018-12-29T13:55:29.025Z,6.40
2018-12-29T13:57:59.629Z,7.37
2018-12-29T14:00:28.042Z,6.60
2018-12-29T14:02:56.183Z,6.63
2018-12-29T14:05:25.119Z,6.13
2018-12-29T14:07:53.310Z,6.60
2018-12-29T14:10:21.474Z,8.07
2018-12-29T14:12:49.622Z,6.23
2018-12-29T14:15:17.800Z,6.53
2018-12-29T14:17:46.345Z,7.50
2018-12-29T14:20:14.498Z,7.27
2018-12-29T14:22:42.690Z,7.30
2018-12-29T14:25:11.118Z,8.50
2018-12-29T14:27:39.258Z,8.23
2018-12-29T14:30:07.642Z,8.23
2018-12-29T14:32:35.789Z,8.20
2018-12-29T14:35:04.110Z,8.57
2018-12-29T14:37:32.278Z,8.83
2018-12-29T14:40:00.421Z,8.20
2018-12-29T14:42:29.165Z,9.63
2018-12-29T14:44:57.356Z,10.70
2018-12-29T14:47:25.506Z,8.57
2018-12-29T14:49:53.645Z,10.43
2018-12-29T14:52:21.835Z,8.50
2018-12-29T14:54:52.110Z,8.00
2018-12-29T14:57:20.251Z,7.93
2018-12-29T14:59:48.558Z,8.53
2018-12-29T15:02:16.706Z,8.13
2018-12-29T15:04:44.849Z,8.43
2018-12-29T15:07:13.326Z,7.30
2018-12-29T15:09:41.470Z,8.53
2018-12-29T15:12:09.611Z,7.83
2018-12-29T15:14:37.802Z,7.80
2018-12-29T15:17:05.965Z,7.17
2018-12-29T15:19:34.107Z,6.87
2018-12-29T15:22:02.274Z,7.07
2018-12-29T15:24:30.432Z,7.20
2018-12-29T15:26:58.582Z,6.80
2018-12-29T15:29:26.754Z,6.73
2018-12-29T15:31:54.892Z,6.67
2018-12-29T15:34:23.025Z,6.80
2018-12-29T15:36:51.217Z,6.50
2018-12-29T15:39:19.757Z,6.50
2018-12-29T15:41:47.901Z,8.00
2018-12-29T15:44:17.831Z,6.20
2018-12-29T15:46:45.969Z,6.40
2018-12-29T15:49:15.083Z,8.10
2018-12-29T15:51:43.189Z,6.80
2018-12-29T15:54:11.337Z,5.70
2018-12-29T15:56:39.479Z,5.90
2018-12-29T15:59:07.650Z,6.17
2018-12-29T16:01:35.789Z,5.53
2018-12-29T16:04:06.328Z,6.43
2018-12-29T16:06:34.517Z,5.13
2018-12-29T16:09:02.668Z,6.10
2018-12-29T16:11:31.198Z,5.90
2018-12-29T16:13:59.522Z,6.27
2018-12-29T16:16:27.673Z,6.37
2018-12-29T16:18:58.951Z,5.47
2018-12-29T16:21:25.649Z,5.30
2018-12-29T16:23:53.790Z,6.57
2018-12-29T16:26:21.928Z,12.30
2018-12-29T16:28:50.154Z,10.60
2018-12-29T16:31:18.423Z,10.67
2018-12-29T16:33:53.783Z,5.73
2018-12-29T16:36:18.498Z,15.27
2018-12-29T16:38:46.745Z,8.63
2018-12-29T16:41:16.045Z,11.10
2018-12-29T16:43:44.217Z,7.77
2018-12-29T16:46:12.360Z,6.63
2018-12-29T16:48:40.500Z,7.53
2018-12-29T16:51:08.677Z,8.50
2018-12-29T16:53:36.817Z,5.67
2018-12-29T16:56:04.969Z,6.37
2018-12-29T16:58:33.135Z,5.33
2018-12-29T17:01:01.296Z,5.30
2018-12-29T17:03:29.430Z,4.80
2018-12-29T17:05:57.609Z,7.17
2018-12-29T17:08:27.204Z,5.40
2018-12-29T17:21:24.748Z,4.00
2018-12-29T17:23:52.875Z,3.77
2018-12-29T17:26:21.018Z,3.43
2018-12-29T17:28:49.228Z,3.07
2018-12-29T17:31:17.557Z,3.23
2018-12-29T17:33:45.698Z,3.43
2018-12-29T17:36:13.869Z,3.97
2018-12-29T17:38:42.147Z,6.33
2018-12-29T17:41:11.307Z,4.80
2018-12-29T17:43:39.673Z,5.50
2018-12-29T17:46:08.166Z,4.03
2018-12-29T17:48:37.218Z,6.20
2018-12-29T17:51:05.396Z,6.63
2018-12-29T17:53:34.034Z,6.30
2018-12-29T17:56:02.189Z,5.63
2018-12-29T17:58:30.361Z,4.97
2018-12-29T18:00:58.500Z,17.00
2018-12-29T18:03:26.642Z,8.20
2018-12-29T18:05:55.017Z,13.80
2018-12-29T18:08:23.172Z,7.77
2018-12-29T18:10:54.337Z,9.27
2018-12-29T18:13:22.210Z,10.77
2018-12-29T18:15:50.349Z,7.30
2018-12-29T18:18:18.493Z,11.13
2018-12-29T18:20:46.662Z,5.77
2018-12-29T18:23:14.806Z,4.93
2018-12-29T18:25:42.953Z,5.60
2018-12-29T18:28:15.335Z,3.70
2018-12-29T18:30:46.788Z,3.30
2018-12-29T18:33:20.704Z,3.33
2018-12-29T18:35:51.841Z,3.53
2018-12-29T18:38:20.207Z,3.30
2018-12-29T18:40:48.373Z,3.43
2018-12-29T18:43:17.618Z,2.70
2018-12-29T18:45:45.786Z,3.37
2018-12-29T18:48:14.385Z,3.13
2018-12-29T18:50:42.498Z,3.17
2018-12-29T18:53:10.637Z,3.43
2018-12-29T18:55:38.813Z,3.47
2018-12-29T18:58:06.961Z,4.63
2018-12-29T19:00:35.610Z,7.00
2018-12-29T19:03:03.769Z,4.77
2018-12-29T19:05:31.917Z,4.90
2018-12-29T19:08:00.089Z,5.50
2018-12-29T19:10:28.253Z,6.20
2018-12-29T19:12:56.399Z,11.63
2018-12-29T19:15:24.748Z,15.67
2018-12-29T19:17:53.076Z,7.60
2018-12-29T19:20:21.871Z,4.60
2018-12-29T19:22:50.018Z,5.75
2018-12-29T19:25:18.185Z,4.77
2018-12-29T19:27:46.335Z,5.03
2018-12-29T19:30:14.477Z,5.13
2018-12-29T19:32:42.697Z,6.87
2018-12-29T19:35:11.401Z,8.33
2018-12-29T19:37:39.538Z,8.40
2018-12-29T19:40:07.902Z,11.47
2018-12-29T19:42:36.029Z,6.63
2018-12-29T19:45:04.178Z,6.73
2018-12-29T19:47:32.492Z,5.00
2018-12-29T19:50:01.089Z,4.77
2018-12-29T19:52:29.231Z,14.83
2018-12-29T19:54:57.474Z,10.30
2018-12-29T19:57:26.148Z,7.50
2018-12-29T19:59:54.364Z,4.10
2018-12-29T20:02:22.990Z,4.77
2018-12-29T20:04:53.334Z,6.70
2018-12-29T20:07:21.401Z,7.30
2018-12-29T20:09:49.955Z,7.40
2018-12-29T20:12:18.100Z,8.00
2018-12-29T20:14:46.258Z,7.97
2018-12-29T20:17:14.813Z,3.90
2018-12-29T20:19:42.956Z,6.23
2018-12-29T20:22:11.093Z,6.53
2018-12-29T20:24:39.269Z,5.90
2018-12-29T20:27:07.410Z,5.33
2018-12-29T20:29:35.550Z,5.43
2018-12-29T20:32:03.731Z,8.07
2018-12-29T20:34:32.170Z,10.73
2018-12-29T20:37:00.309Z,7.37
2018-12-29T20:39:28.803Z,5.10
2018-12-29T20:41:56.942Z,4.33
2018-12-29T20:44:25.338Z,4.30
2018-12-29T20:46:53.505Z,4.93
2018-12-29T20:49:21.655Z,3.33
2018-12-29T20:51:49.805Z,5.77
2018-12-29T20:54:17.979Z,3.87
2018-12-29T20:56:46.122Z,4.03
2018-12-29T20:59:14.393Z,3.47
2018-12-29T21:01:42.633Z,2.97
2018-12-29T21:04:11.853Z,3.63
2018-12-29T21:06:39.999Z,3.10
2018-12-29T21:09:08.759Z,3.10
2018-12-29T21:11:36.925Z,2.90
2018-12-29T21:14:05.062Z,4.03
2018-12-29T21:16:33.746Z,3.93
2018-12-29T21:19:01.887Z,3.07
2018-12-29T21:21:30.152Z,3.43
2018-12-29T21:23:58.327Z,4.20
2018-12-29T21:26:26.465Z,4.60
2018-12-29T21:28:54.611Z,3.30
2018-12-29T21:31:23.101Z,3.53
2018-12-29T21:33:51.265Z,3.60
2018-12-29T21:36:19.440Z,3.43
2018-12-29T21:38:47.594Z,3.90
2018-12-29T21:41:15.737Z,3.53
2018-12-29T21:43:43.895Z,4.63
2018-12-29T21:46:12.170Z,3.97
2018-12-29T21:48:40.321Z,4.50
2018-12-29T21:51:08.469Z,4.97
2018-12-29T21:53:36.646Z,5.03
2018-12-29T21:56:04.792Z,6.63
2018-12-29T21:58:33.349Z,7.03
2018-12-29T22:01:01.513Z,10.80
2018-12-29T22:03:29.659Z,6.43
2018-12-29T22:05:57.798Z,4.93
2018-12-29T22:08:25.983Z,3.77
2018-12-29T22:10:54.127Z,3.50
2018-12-29T22:13:22.769Z,3.93
2018-12-29T22:15:50.930Z,3.50
2018-12-29T22:18:19.074Z,4.13
2018-12-29T22:20:47.213Z,4.00
2018-12-29T22:23:15.386Z,3.97
2018-12-29T22:25:48.136Z,3.43
2018-12-29T22:28:13.333Z,3.90
2018-12-29T22:30:41.523Z,3.23
2018-12-29T22:33:09.672Z,4.63
2018-12-29T22:35:37.809Z,4.43
2018-12-29T22:38:06.030Z,5.90
2018-12-29T22:40:34.577Z,4.10
2018-12-29T22:43:02.741Z,3.53
2018-12-29T22:45:30.917Z,3.63
2018-12-29T22:47:59.067Z,3.70
2018-12-29T22:50:27.206Z,2.73
2018-12-29T22:52:55.929Z,3.17
2018-12-29T22:55:24.173Z,3.03
2018-12-29T22:57:52.309Z,3.07
2018-12-29T23:00:22.119Z,2.90
2018-12-29T23:02:50.264Z,3.30
2018-12-29T23:05:20.182Z,2.83
2018-12-29T23:07:48.671Z,2.87
2018-12-29T23:10:16.873Z,2.80
2018-12-29T23:12:44.953Z,2.70
2018-12-29T23:15:13.120Z,2.47
2018-12-29T23:17:41.259Z,3.13
2018-12-29T23:20:12.527Z,2.63
2018-12-29T23:22:40.706Z,3.17
2018-12-29T23:25:08.846Z,2.57
2018-12-29T23:27:37.186Z,2.37
2018-12-29T23:30:05.358Z,2.97
2018-12-29T23:32:33.508Z,3.77
2018-12-29T23:35:01.655Z,3.37
2018-12-29T23:37:29.825Z,2.90
2018-12-29T23:39:58.162Z,3.30
2018-12-29T23:42:26.312Z,2.57
2018-12-29T23:44:55.509Z,2.87
2018-12-29T23:47:24.250Z,3.07
2018-12-29T23:49:52.400Z,3.27
2018-12-29T23:52:21.030Z,3.57
2018-12-29T23:54:49.310Z,3.67
2018-12-29T23:57:17.715Z,3.17
2018-12-29T23:59:46.014Z,4.03
